sensor_id;sensor_type;location;lat;lon;timestamp;P1;durP1;ratioP1;P2;durP2;ratioP2
50739;SDS011;36704;52.524;17.580;2023-08-21T00:01:25;20.15;;;15.73;;
50739;SDS011;36704;52.524;17.580;2023-08-21T00:04:12;18.25;;;16.20;;
50739;SDS011;36704;52.524;17.580;2023-08-21T00:06:57;19.88;;;16.27;;
50739;SDS011;36704;52.524;17.580;2023-08-21T00:09:44;20.10;;;15.32;;
50739;SDS011;36704;52.524;17.580;2023-08-21T00:12:30;17.42;;;15.52;;
50739;SDS011;36704;52.524;17.580;2023-08-21T00:15:16;18.25;;;15.68;;
50739;SDS011;36704;52.524;17.580;2023-08-21T00:18:03;17.15;;;15.27;;
50739;SDS011;36704;52.524;17.580;2023-08-21T00:20:49;20.17;;;16.17;;
50739;SDS011;36704;52.524;17.580;2023-08-21T00:23:35;18.67;;;16.35;;
50739;SDS011;36704;52.524;17.580;2023-08-21T00:26:23;19.73;;;15.85;;
50739;SDS011;36704;52.524;17.580;2023-08-21T00:29:09;19.25;;;15.90;;
50739;SDS011;36704;52.524;17.580;2023-08-21T00:31:56;18.35;;;15.57;;
50739;SDS011;36704;52.524;17.580;2023-08-21T00:34:42;19.10;;;15.55;;
50739;SDS011;36704;52.524;17.580;2023-08-21T00:37:28;15.90;;;13.98;;
50739;SDS011;36704;52.524;17.580;2023-08-21T00:40:14;17.73;;;14.05;;
50739;SDS011;36704;52.524;17.580;2023-08-21T00:43:03;17.45;;;14.85;;
50739;SDS011;36704;52.524;17.580;2023-08-21T00:45:50;18.02;;;15.05;;
50739;SDS011;36704;52.524;17.580;2023-08-21T00:48:37;20.67;;;14.95;;
50739;SDS011;36704;52.524;17.580;2023-08-21T00:51:23;17.33;;;13.68;;
50739;SDS011;36704;52.524;17.580;2023-08-21T00:54:10;15.52;;;13.50;;
50739;SDS011;36704;52.524;17.580;2023-08-21T00:56:55;16.65;;;13.93;;
50739;SDS011;36704;52.524;17.580;2023-08-21T00:59:42;17.25;;;13.27;;
50739;SDS011;36704;52.524;17.580;2023-08-21T01:02:28;16.60;;;13.23;;
50739;SDS011;36704;52.524;17.580;2023-08-21T01:05:17;16.23;;;12.95;;
50739;SDS011;36704;52.524;17.580;2023-08-21T01:08:05;16.63;;;13.77;;
50739;SDS011;36704;52.524;17.580;2023-08-21T01:16:58;16.57;;;12.93;;
50739;SDS011;36704;52.524;17.580;2023-08-21T01:19:46;15.07;;;13.00;;
50739;SDS011;36704;52.524;17.580;2023-08-21T01:22:38;17.27;;;13.63;;
50739;SDS011;36704;52.524;17.580;2023-08-21T01:25:26;14.30;;;12.80;;
50739;SDS011;36704;52.524;17.580;2023-08-21T01:28:11;15.13;;;12.43;;
50739;SDS011;36704;52.524;17.580;2023-08-21T01:30:59;17.05;;;13.15;;
50739;SDS011;36704;52.524;17.580;2023-08-21T01:33:51;16.27;;;12.57;;
50739;SDS011;36704;52.524;17.580;2023-08-21T01:36:42;15.68;;;13.48;;
50739;SDS011;36704;52.524;17.580;2023-08-21T01:39:29;14.07;;;11.85;;
50739;SDS011;36704;52.524;17.580;2023-08-21T01:42:15;15.45;;;12.35;;
50739;SDS011;36704;52.524;17.580;2023-08-21T01:45:01;15.55;;;11.98;;
50739;SDS011;36704;52.524;17.580;2023-08-21T01:47:48;16.38;;;12.82;;
50739;SDS011;36704;52.524;17.580;2023-08-21T01:50:34;15.88;;;11.73;;
50739;SDS011;36704;52.524;17.580;2023-08-21T01:53:20;19.85;;;13.82;;
50739;SDS011;36704;52.524;17.580;2023-08-21T01:56:07;18.35;;;13.27;;
50739;SDS011;36704;52.524;17.580;2023-08-21T01:58:53;17.40;;;13.88;;
50739;SDS011;36704;52.524;17.580;2023-08-21T02:01:40;16.30;;;13.38;;
50739;SDS011;36704;52.524;17.580;2023-08-21T02:04:26;16.63;;;12.85;;
50739;SDS011;36704;52.524;17.580;2023-08-21T02:07:12;15.48;;;12.95;;
50739;SDS011;36704;52.524;17.580;2023-08-21T02:09:59;15.27;;;13.15;;
50739;SDS011;36704;52.524;17.580;2023-08-21T02:12:45;17.40;;;13.63;;
50739;SDS011;36704;52.524;17.580;2023-08-21T02:15:34;16.13;;;12.88;;
50739;SDS011;36704;52.524;17.580;2023-08-21T02:18:20;18.17;;;13.60;;
50739;SDS011;36704;52.524;17.580;2023-08-21T02:21:05;17.92;;;12.93;;
50739;SDS011;36704;52.524;17.580;2023-08-21T02:23:52;16.83;;;12.82;;
50739;SDS011;36704;52.524;17.580;2023-08-21T02:26:38;21.02;;;12.73;;
50739;SDS011;36704;52.524;17.580;2023-08-21T02:29:24;15.90;;;12.43;;
50739;SDS011;36704;52.524;17.580;2023-08-21T02:32:10;16.90;;;12.52;;
50739;SDS011;36704;52.524;17.580;2023-08-21T02:34:58;15.50;;;12.32;;
50739;SDS011;36704;52.524;17.580;2023-08-21T02:37:44;17.20;;;12.50;;
50739;SDS011;36704;52.524;17.580;2023-08-21T02:40:31;16.13;;;12.07;;
50739;SDS011;36704;52.524;17.580;2023-08-21T02:43:17;15.40;;;12.38;;
50739;SDS011;36704;52.524;17.580;2023-08-21T02:46:03;13.85;;;10.98;;
50739;SDS011;36704;52.524;17.580;2023-08-21T02:48:50;15.27;;;11.27;;
50739;SDS011;36704;52.524;17.580;2023-08-21T02:51:36;13.45;;;11.15;;
50739;SDS011;36704;52.524;17.580;2023-08-21T02:54:22;13.90;;;10.68;;
50739;SDS011;36704;52.524;17.580;2023-08-21T02:57:08;13.10;;;10.65;;
50739;SDS011;36704;52.524;17.580;2023-08-21T02:59:54;14.02;;;10.23;;
50739;SDS011;36704;52.524;17.580;2023-08-21T03:02:40;18.05;;;10.13;;
50739;SDS011;36704;52.524;17.580;2023-08-21T03:05:29;12.15;;;9.55;;
50739;SDS011;36704;52.524;17.580;2023-08-21T03:08:16;12.10;;;9.77;;
50739;SDS011;36704;52.524;17.580;2023-08-21T03:11:02;10.65;;;8.25;;
50739;SDS011;36704;52.524;17.580;2023-08-21T03:13:48;10.52;;;7.75;;
50739;SDS011;36704;52.524;17.580;2023-08-21T03:16:34;9.43;;;7.85;;
50739;SDS011;36704;52.524;17.580;2023-08-21T03:19:20;10.40;;;8.35;;
50739;SDS011;36704;52.524;17.580;2023-08-21T03:22:05;10.27;;;8.65;;
50739;SDS011;36704;52.524;17.580;2023-08-21T03:24:52;11.40;;;7.97;;
50739;SDS011;36704;52.524;17.580;2023-08-21T03:27:38;10.55;;;8.30;;
50739;SDS011;36704;52.524;17.580;2023-08-21T03:30:25;10.63;;;8.35;;
50739;SDS011;36704;52.524;17.580;2023-08-21T03:33:11;11.98;;;8.35;;
50739;SDS011;36704;52.524;17.580;2023-08-21T03:35:58;10.07;;;8.15;;
50739;SDS011;36704;52.524;17.580;2023-08-21T03:38:45;9.70;;;8.30;;
50739;SDS011;36704;52.524;17.580;2023-08-21T03:41:31;9.77;;;8.32;;
50739;SDS011;36704;52.524;17.580;2023-08-21T03:44:18;9.82;;;8.07;;
50739;SDS011;36704;52.524;17.580;2023-08-21T03:47:05;11.02;;;8.13;;
50739;SDS011;36704;52.524;17.580;2023-08-21T03:49:57;10.63;;;8.60;;
50739;SDS011;36704;52.524;17.580;2023-08-21T03:52:45;9.75;;;8.30;;
50739;SDS011;36704;52.524;17.580;2023-08-21T03:55:30;11.10;;;8.52;;
50739;SDS011;36704;52.524;17.580;2023-08-21T03:58:16;10.95;;;7.85;;
50739;SDS011;36704;52.524;17.580;2023-08-21T04:01:02;10.00;;;7.53;;
50739;SDS011;36704;52.524;17.580;2023-08-21T04:03:51;8.82;;;6.65;;
50739;SDS011;36704;52.524;17.580;2023-08-21T04:06:40;9.27;;;6.72;;
50739;SDS011;36704;52.524;17.580;2023-08-21T04:09:27;9.07;;;6.40;;
50739;SDS011;36704;52.524;17.580;2023-08-21T04:12:12;9.82;;;6.20;;
50739;SDS011;36704;52.524;17.580;2023-08-21T04:14:58;9.93;;;6.32;;
50739;SDS011;36704;52.524;17.580;2023-08-21T04:17:45;14.48;;;10.98;;
50739;SDS011;36704;52.524;17.580;2023-08-21T04:20:34;9.77;;;7.63;;
50739;SDS011;36704;52.524;17.580;2023-08-21T04:23:20;8.52;;;7.00;;
50739;SDS011;36704;52.524;17.580;2023-08-21T04:26:06;10.95;;;7.78;;
50739;SDS011;36704;52.524;17.580;2023-08-21T04:28:53;10.20;;;7.45;;
50739;SDS011;36704;52.524;17.580;2023-08-21T04:31:39;10.98;;;8.52;;
50739;SDS011;36704;52.524;17.580;2023-08-21T04:34:25;12.82;;;8.00;;
50739;SDS011;36704;52.524;17.580;2023-08-21T04:37:12;10.55;;;8.73;;
50739;SDS011;36704;52.524;17.580;2023-08-21T04:39:58;9.90;;;7.65;;
50739;SDS011;36704;52.524;17.580;2023-08-21T04:42:45;15.68;;;9.15;;
50739;SDS011;36704;52.524;17.580;2023-08-21T04:45:31;11.00;;;8.07;;
50739;SDS011;36704;52.524;17.580;2023-08-21T04:48:17;12.50;;;7.95;;
50739;SDS011;36704;52.524;17.580;2023-08-21T04:51:05;10.40;;;7.90;;
50739;SDS011;36704;52.524;17.580;2023-08-21T04:53:52;9.65;;;7.38;;
50739;SDS011;36704;52.524;17.580;2023-08-21T04:56:40;10.88;;;7.50;;
50739;SDS011;36704;52.524;17.580;2023-08-21T04:59:28;9.70;;;6.75;;
50739;SDS011;36704;52.524;17.580;2023-08-21T05:02:14;14.55;;;7.40;;
50739;SDS011;36704;52.524;17.580;2023-08-21T05:05:00;11.40;;;8.75;;
50739;SDS011;36704;52.524;17.580;2023-08-21T05:07:49;13.57;;;8.23;;
50739;SDS011;36704;52.524;17.580;2023-08-21T05:10:35;15.55;;;9.02;;
50739;SDS011;36704;52.524;17.580;2023-08-21T05:13:22;11.27;;;8.48;;
50739;SDS011;36704;52.524;17.580;2023-08-21T05:16:08;9.95;;;7.03;;
50739;SDS011;36704;52.524;17.580;2023-08-21T05:18:58;13.85;;;9.95;;
50739;SDS011;36704;52.524;17.580;2023-08-21T05:21:45;15.00;;;10.35;;
50739;SDS011;36704;52.524;17.580;2023-08-21T05:24:31;12.65;;;8.35;;
50739;SDS011;36704;52.524;17.580;2023-08-21T05:27:21;11.38;;;7.72;;
50739;SDS011;36704;52.524;17.580;2023-08-21T05:30:07;11.15;;;7.22;;
50739;SDS011;36704;52.524;17.580;2023-08-21T05:32:57;11.90;;;7.03;;
50739;SDS011;36704;52.524;17.580;2023-08-21T05:35:44;10.32;;;7.45;;
50739;SDS011;36704;52.524;17.580;2023-08-21T05:38:31;11.25;;;8.38;;
50739;SDS011;36704;52.524;17.580;2023-08-21T05:41:17;11.38;;;6.63;;
50739;SDS011;36704;52.524;17.580;2023-08-21T05:44:06;10.55;;;6.57;;
50739;SDS011;36704;52.524;17.580;2023-08-21T05:46:53;9.80;;;6.25;;
50739;SDS011;36704;52.524;17.580;2023-08-21T05:49:39;9.18;;;5.88;;
50739;SDS011;36704;52.524;17.580;2023-08-21T05:52:26;8.55;;;6.10;;
50739;SDS011;36704;52.524;17.580;2023-08-21T05:55:19;9.65;;;6.35;;
50739;SDS011;36704;52.524;17.580;2023-08-21T05:58:22;8.90;;;6.05;;
50739;SDS011;36704;52.524;17.580;2023-08-21T06:01:12;10.07;;;7.03;;
50739;SDS011;36704;52.524;17.580;2023-08-21T06:04:01;8.77;;;5.20;;
50739;SDS011;36704;52.524;17.580;2023-08-21T06:07:00;9.93;;;5.18;;
50739;SDS011;36704;52.524;17.580;2023-08-21T06:09:46;7.85;;;5.55;;
50739;SDS011;36704;52.524;17.580;2023-08-21T06:12:35;6.95;;;5.07;;
50739;SDS011;36704;52.524;17.580;2023-08-21T06:15:24;8.85;;;4.95;;
50739;SDS011;36704;52.524;17.580;2023-08-21T06:18:10;9.98;;;4.38;;
50739;SDS011;36704;52.524;17.580;2023-08-21T06:20:58;6.93;;;3.67;;
50739;SDS011;36704;52.524;17.580;2023-08-21T06:23:44;6.30;;;3.75;;
50739;SDS011;36704;52.524;17.580;2023-08-21T06:26:30;6.82;;;3.70;;
50739;SDS011;36704;52.524;17.580;2023-08-21T06:29:20;8.25;;;4.20;;
50739;SDS011;36704;52.524;17.580;2023-08-21T06:32:06;8.27;;;3.67;;
50739;SDS011;36704;52.524;17.580;2023-08-21T06:34:56;7.68;;;4.00;;
50739;SDS011;36704;52.524;17.580;2023-08-21T06:37:45;6.43;;;3.78;;
50739;SDS011;36704;52.524;17.580;2023-08-21T06:40:35;7.03;;;3.72;;
50739;SDS011;36704;52.524;17.580;2023-08-21T06:43:21;7.32;;;3.40;;
50739;SDS011;36704;52.524;17.580;2023-08-21T06:46:08;5.85;;;3.50;;
50739;SDS011;36704;52.524;17.580;2023-08-21T06:48:55;8.10;;;3.60;;
50739;SDS011;36704;52.524;17.580;2023-08-21T06:51:42;4.40;;;2.40;;
50739;SDS011;36704;52.524;17.580;2023-08-21T06:54:28;9.13;;;3.55;;
50739;SDS011;36704;52.524;17.580;2023-08-21T06:57:17;6.28;;;3.00;;
50739;SDS011;36704;52.524;17.580;2023-08-21T07:00:05;6.82;;;2.85;;
50739;SDS011;36704;52.524;17.580;2023-08-21T07:02:55;4.47;;;2.60;;
50739;SDS011;36704;52.524;17.580;2023-08-21T07:05:46;5.85;;;2.78;;
50739;SDS011;36704;52.524;17.580;2023-08-21T07:08:35;6.93;;;3.30;;
50739;SDS011;36704;52.524;17.580;2023-08-21T07:11:24;6.53;;;2.47;;
50739;SDS011;36704;52.524;17.580;2023-08-21T07:14:11;6.95;;;2.70;;
50739;SDS011;36704;52.524;17.580;2023-08-21T07:17:00;4.65;;;2.88;;
50739;SDS011;36704;52.524;17.580;2023-08-21T07:19:47;6.15;;;2.35;;
50739;SDS011;36704;52.524;17.580;2023-08-21T07:22:40;5.07;;;2.20;;
50739;SDS011;36704;52.524;17.580;2023-08-21T07:25:29;4.50;;;2.60;;
50739;SDS011;36704;52.524;17.580;2023-08-21T07:28:18;6.03;;;2.60;;
50739;SDS011;36704;52.524;17.580;2023-08-21T07:31:12;4.72;;;2.22;;
50739;SDS011;36704;52.524;17.580;2023-08-21T07:34:00;5.05;;;2.65;;
50739;SDS011;36704;52.524;17.580;2023-08-21T07:36:52;5.82;;;2.50;;
50739;SDS011;36704;52.524;17.580;2023-08-21T07:39:40;4.25;;;2.45;;
50739;SDS011;36704;52.524;17.580;2023-08-21T07:42:29;4.50;;;2.58;;
50739;SDS011;36704;52.524;17.580;2023-08-21T07:45:15;5.72;;;2.35;;
50739;SDS011;36704;52.524;17.580;2023-08-21T07:48:07;4.60;;;2.42;;
50739;SDS011;36704;52.524;17.580;2023-08-21T07:51:08;5.63;;;2.53;;
50739;SDS011;36704;52.524;17.580;2023-08-21T07:53:55;10.05;;;2.67;;
50739;SDS011;36704;52.524;17.580;2023-08-21T07:56:47;5.75;;;2.50;;
50739;SDS011;36704;52.524;17.580;2023-08-21T07:59:48;5.32;;;2.35;;
50739;SDS011;36704;52.524;17.580;2023-08-21T08:03:08;4.78;;;2.40;;
50739;SDS011;36704;52.524;17.580;2023-08-21T08:05:56;4.93;;;2.40;;
50739;SDS011;36704;52.524;17.580;2023-08-21T08:08:47;6.68;;;2.40;;
50739;SDS011;36704;52.524;17.580;2023-08-21T08:12:42;5.05;;;2.22;;
50739;SDS011;36704;52.524;17.580;2023-08-21T08:15:34;3.05;;;1.80;;
50739;SDS011;36704;52.524;17.580;2023-08-21T08:19:07;6.50;;;2.03;;
50739;SDS011;36704;52.524;17.580;2023-08-21T08:27:00;6.15;;;2.53;;
50739;SDS011;36704;52.524;17.580;2023-08-21T08:31:31;5.57;;;1.95;;
50739;SDS011;36704;52.524;17.580;2023-08-21T08:34:36;2.97;;;1.80;;
50739;SDS011;36704;52.524;17.580;2023-08-21T08:37:41;2.63;;;1.77;;
50739;SDS011;36704;52.524;17.580;2023-08-21T08:40:52;7.50;;;2.30;;
50739;SDS011;36704;52.524;17.580;2023-08-21T08:44:11;3.97;;;1.80;;
50739;SDS011;36704;52.524;17.580;2023-08-21T08:47:32;5.38;;;2.10;;
50739;SDS011;36704;52.524;17.580;2023-08-21T08:51:03;4.68;;;1.95;;
50739;SDS011;36704;52.524;17.580;2023-08-21T08:55:12;5.05;;;1.60;;
50739;SDS011;36704;52.524;17.580;2023-08-21T08:58:06;4.22;;;1.70;;
50739;SDS011;36704;52.524;17.580;2023-08-21T09:01:12;3.42;;;2.00;;
50739;SDS011;36704;52.524;17.580;2023-08-21T09:08:07;3.15;;;1.50;;
50739;SDS011;36704;52.524;17.580;2023-08-21T09:11:54;6.10;;;2.10;;
50739;SDS011;36704;52.524;17.580;2023-08-21T09:15:11;5.30;;;2.03;;
50739;SDS011;36704;52.524;17.580;2023-08-21T09:18:36;4.68;;;1.52;;
50739;SDS011;36704;52.524;17.580;2023-08-21T09:21:39;5.32;;;1.80;;
50739;SDS011;36704;52.524;17.580;2023-08-21T09:28:13;6.85;;;2.20;;
50739;SDS011;36704;52.524;17.580;2023-08-21T09:35:36;4.38;;;1.70;;
50739;SDS011;36704;52.524;17.580;2023-08-21T09:38:45;3.47;;;1.60;;
50739;SDS011;36704;52.524;17.580;2023-08-21T09:42:47;5.97;;;2.13;;
50739;SDS011;36704;52.524;17.580;2023-08-21T09:45:59;4.13;;;1.58;;
50739;SDS011;36704;52.524;17.580;2023-08-21T09:49:10;3.72;;;1.70;;
50739;SDS011;36704;52.524;17.580;2023-08-21T09:52:19;3.75;;;1.60;;
50739;SDS011;36704;52.524;17.580;2023-08-21T09:55:58;4.47;;;1.80;;
50739;SDS011;36704;52.524;17.580;2023-08-21T09:59:25;7.57;;;1.90;;
50739;SDS011;36704;52.524;17.580;2023-08-21T10:03:20;2.15;;;1.63;;
50739;SDS011;36704;52.524;17.580;2023-08-21T10:07:42;5.90;;;2.22;;
50739;SDS011;36704;52.524;17.580;2023-08-21T10:10:55;3.50;;;1.80;;
50739;SDS011;36704;52.524;17.580;2023-08-21T10:17:37;3.70;;;1.92;;
50739;SDS011;36704;52.524;17.580;2023-08-21T10:20:43;3.90;;;1.85;;
50739;SDS011;36704;52.524;17.580;2023-08-21T10:23:35;3.85;;;1.90;;
50739;SDS011;36704;52.524;17.580;2023-08-21T10:26:42;9.68;;;2.10;;
50739;SDS011;36704;52.524;17.580;2023-08-21T10:30:35;3.20;;;1.85;;
50739;SDS011;36704;52.524;17.580;2023-08-21T10:34:03;3.10;;;1.85;;
50739;SDS011;36704;52.524;17.580;2023-08-21T10:37:26;6.03;;;1.33;;
50739;SDS011;36704;52.524;17.580;2023-08-21T10:40:21;4.63;;;2.47;;
50739;SDS011;36704;52.524;17.580;2023-08-21T10:43:43;5.97;;;1.98;;
50739;SDS011;36704;52.524;17.580;2023-08-21T10:47:13;3.45;;;2.08;;
50739;SDS011;36704;52.524;17.580;2023-08-21T10:53:36;5.85;;;2.05;;
50739;SDS011;36704;52.524;17.580;2023-08-21T10:57:03;4.93;;;1.95;;
50739;SDS011;36704;52.524;17.580;2023-08-21T11:01:53;5.00;;;2.03;;
50739;SDS011;36704;52.524;17.580;2023-08-21T11:09:29;3.35;;;2.60;;
50739;SDS011;36704;52.524;17.580;2023-08-21T11:12:25;6.43;;;2.70;;
50739;SDS011;36704;52.524;17.580;2023-08-21T11:15:32;6.80;;;2.03;;
50739;SDS011;36704;52.524;17.580;2023-08-21T11:18:40;2.78;;;1.98;;
50739;SDS011;36704;52.524;17.580;2023-08-21T11:21:33;3.67;;;2.00;;
50739;SDS011;36704;52.524;17.580;2023-08-21T11:24:50;2.42;;;1.70;;
50739;SDS011;36704;52.524;17.580;2023-08-21T11:27:39;3.08;;;2.20;;
50739;SDS011;36704;52.524;17.580;2023-08-21T11:30:32;3.72;;;2.17;;
50739;SDS011;36704;52.524;17.580;2023-08-21T11:33:28;3.25;;;1.80;;
50739;SDS011;36704;52.524;17.580;2023-08-21T11:36:18;4.63;;;1.90;;
50739;SDS011;36704;52.524;17.580;2023-08-21T11:39:14;6.05;;;2.10;;
50739;SDS011;36704;52.524;17.580;2023-08-21T11:42:10;4.85;;;2.35;;
50739;SDS011;36704;52.524;17.580;2023-08-21T11:45:16;4.03;;;2.05;;
50739;SDS011;36704;52.524;17.580;2023-08-21T11:48:15;5.55;;;2.28;;
50739;SDS011;36704;52.524;17.580;2023-08-21T11:51:10;3.75;;;2.30;;
50739;SDS011;36704;52.524;17.580;2023-08-21T11:54:20;4.85;;;2.25;;
50739;SDS011;36704;52.524;17.580;2023-08-21T11:57:15;7.10;;;2.20;;
50739;SDS011;36704;52.524;17.580;2023-08-21T12:00:01;3.15;;;2.13;;
50739;SDS011;36704;52.524;17.580;2023-08-21T12:03:08;6.30;;;2.28;;
50739;SDS011;36704;52.524;17.580;2023-08-21T12:06:11;5.95;;;2.30;;
50739;SDS011;36704;52.524;17.580;2023-08-21T12:09:30;3.50;;;2.15;;
50739;SDS011;36704;52.524;17.580;2023-08-21T12:12:18;4.20;;;2.10;;
50739;SDS011;36704;52.524;17.580;2023-08-21T12:15:18;6.65;;;2.17;;
50739;SDS011;36704;52.524;17.580;2023-08-21T12:18:08;6.20;;;3.20;;
50739;SDS011;36704;52.524;17.580;2023-08-21T12:20:59;5.72;;;2.42;;
50739;SDS011;36704;52.524;17.580;2023-08-21T12:24:01;7.60;;;2.78;;
50739;SDS011;36704;52.524;17.580;2023-08-21T12:26:56;5.60;;;2.30;;
50739;SDS011;36704;52.524;17.580;2023-08-21T12:30:02;2.90;;;2.40;;
50739;SDS011;36704;52.524;17.580;2023-08-21T12:32:51;3.92;;;2.53;;
50739;SDS011;36704;52.524;17.580;2023-08-21T12:35:40;5.47;;;2.60;;
50739;SDS011;36704;52.524;17.580;2023-08-21T12:38:54;4.35;;;2.72;;
50739;SDS011;36704;52.524;17.580;2023-08-21T12:43:33;5.20;;;2.37;;
50739;SDS011;36704;52.524;17.580;2023-08-21T12:46:06;4.07;;;2.50;;
50739;SDS011;36704;52.524;17.580;2023-08-21T12:49:25;3.83;;;2.17;;
50739;SDS011;36704;52.524;17.580;2023-08-21T12:52:32;4.35;;;2.63;;
50739;SDS011;36704;52.524;17.580;2023-08-21T12:55:28;4.88;;;2.55;;
50739;SDS011;36704;52.524;17.580;2023-08-21T12:58:15;3.83;;;2.10;;
50739;SDS011;36704;52.524;17.580;2023-08-21T13:01:09;4.05;;;2.60;;
50739;SDS011;36704;52.524;17.580;2023-08-21T13:04:03;4.75;;;2.58;;
50739;SDS011;36704;52.524;17.580;2023-08-21T13:07:11;2.95;;;2.42;;
50739;SDS011;36704;52.524;17.580;2023-08-21T13:10:11;4.97;;;2.42;;
50739;SDS011;36704;52.524;17.580;2023-08-21T13:13:00;4.20;;;2.85;;
50739;SDS011;36704;52.524;17.580;2023-08-21T13:15:58;5.50;;;2.67;;
50739;SDS011;36704;52.524;17.580;2023-08-21T13:32:40;5.50;;;2.60;;
50739;SDS011;36704;52.524;17.580;2023-08-21T13:43:08;7.07;;;4.75;;
50739;SDS011;36704;52.524;17.580;2023-08-21T13:49:08;6.68;;;3.15;;
50739;SDS011;36704;52.524;17.580;2023-08-21T13:52:16;10.23;;;7.07;;
50739;SDS011;36704;52.524;17.580;2023-08-21T13:55:28;6.70;;;4.90;;
50739;SDS011;36704;52.524;17.580;2023-08-21T13:58:23;7.15;;;3.33;;
50739;SDS011;36704;52.524;17.580;2023-08-21T14:01:11;4.88;;;3.10;;
50739;SDS011;36704;52.524;17.580;2023-08-21T14:04:08;8.52;;;3.50;;
50739;SDS011;36704;52.524;17.580;2023-08-21T14:07:00;6.85;;;2.75;;
50739;SDS011;36704;52.524;17.580;2023-08-21T14:12:36;5.88;;;2.95;;
50739;SDS011;36704;52.524;17.580;2023-08-21T14:15:39;4.20;;;2.92;;
50739;SDS011;36704;52.524;17.580;2023-08-21T14:18:30;5.20;;;3.08;;
50739;SDS011;36704;52.524;17.580;2023-08-21T14:21:21;4.10;;;2.67;;
50739;SDS011;36704;52.524;17.580;2023-08-21T14:24:09;5.07;;;2.70;;
50739;SDS011;36704;52.524;17.580;2023-08-21T14:26:55;4.60;;;2.45;;
50739;SDS011;36704;52.524;17.580;2023-08-21T14:29:44;5.63;;;2.90;;
50739;SDS011;36704;52.524;17.580;2023-08-21T14:32:33;7.70;;;2.83;;
50739;SDS011;36704;52.524;17.580;2023-08-21T14:35:23;5.22;;;2.95;;
50739;SDS011;36704;52.524;17.580;2023-08-21T14:38:26;4.50;;;2.70;;
50739;SDS011;36704;52.524;17.580;2023-08-21T14:41:17;4.25;;;2.90;;
50739;SDS011;36704;52.524;17.580;2023-08-21T14:44:06;3.55;;;2.63;;
50739;SDS011;36704;52.524;17.580;2023-08-21T14:46:54;5.13;;;3.03;;
50739;SDS011;36704;52.524;17.580;2023-08-21T14:49:49;5.07;;;3.08;;
50739;SDS011;36704;52.524;17.580;2023-08-21T14:52:36;6.07;;;2.83;;
50739;SDS011;36704;52.524;17.580;2023-08-21T14:55:25;5.68;;;2.40;;
50739;SDS011;36704;52.524;17.580;2023-08-21T14:58:14;11.88;;;2.88;;
50739;SDS011;36704;52.524;17.580;2023-08-21T15:01:24;6.65;;;3.15;;
50739;SDS011;36704;52.524;17.580;2023-08-21T15:04:17;5.60;;;2.63;;
50739;SDS011;36704;52.524;17.580;2023-08-21T15:07:09;4.38;;;2.72;;
50739;SDS011;36704;52.524;17.580;2023-08-21T15:09:57;6.80;;;3.28;;
50739;SDS011;36704;52.524;17.580;2023-08-21T15:12:47;7.40;;;3.75;;
50739;SDS011;36704;52.524;17.580;2023-08-21T15:15:45;8.30;;;2.70;;
50739;SDS011;36704;52.524;17.580;2023-08-21T15:18:34;3.90;;;2.70;;
50739;SDS011;36704;52.524;17.580;2023-08-21T15:21:23;6.13;;;3.28;;
50739;SDS011;36704;52.524;17.580;2023-08-21T15:24:09;6.57;;;3.00;;
50739;SDS011;36704;52.524;17.580;2023-08-21T15:27:03;4.00;;;2.67;;
50739;SDS011;36704;52.524;17.580;2023-08-21T15:30:47;6.60;;;2.88;;
50739;SDS011;36704;52.524;17.580;2023-08-21T15:34:14;8.20;;;2.78;;
50739;SDS011;36704;52.524;17.580;2023-08-21T15:37:41;5.78;;;3.05;;
50739;SDS011;36704;52.524;17.580;2023-08-21T15:40:45;6.63;;;2.58;;
50739;SDS011;36704;52.524;17.580;2023-08-21T15:47:46;5.65;;;3.08;;
50739;SDS011;36704;52.524;17.580;2023-08-21T15:52:12;5.03;;;3.17;;
50739;SDS011;36704;52.524;17.580;2023-08-21T15:56:36;5.70;;;2.88;;
50739;SDS011;36704;52.524;17.580;2023-08-21T16:00:49;7.88;;;3.30;;
50739;SDS011;36704;52.524;17.580;2023-08-21T16:10:39;6.85;;;3.40;;
50739;SDS011;36704;52.524;17.580;2023-08-21T16:25:03;7.75;;;3.40;;
50739;SDS011;36704;52.524;17.580;2023-08-21T16:33:15;5.22;;;3.28;;
50739;SDS011;36704;52.524;17.580;2023-08-21T16:37:42;11.77;;;3.63;;
50739;SDS011;36704;52.524;17.580;2023-08-21T16:42:17;6.35;;;3.97;;
50739;SDS011;36704;52.524;17.580;2023-08-21T16:46:22;8.73;;;4.60;;
50739;SDS011;36704;52.524;17.580;2023-08-21T16:49:52;8.38;;;4.00;;
50739;SDS011;36704;52.524;17.580;2023-08-21T16:53:03;13.48;;;7.70;;
50739;SDS011;36704;52.524;17.580;2023-08-21T16:56:42;5.20;;;4.15;;
50739;SDS011;36704;52.524;17.580;2023-08-21T17:04:50;5.13;;;3.80;;
50739;SDS011;36704;52.524;17.580;2023-08-21T17:09:08;6.78;;;3.85;;
50739;SDS011;36704;52.524;17.580;2023-08-21T17:14:23;5.95;;;4.15;;
50739;SDS011;36704;52.524;17.580;2023-08-21T17:18:30;7.45;;;4.28;;
50739;SDS011;36704;52.524;17.580;2023-08-21T17:21:20;9.38;;;4.53;;
50739;SDS011;36704;52.524;17.580;2023-08-21T17:24:07;7.25;;;4.22;;
50739;SDS011;36704;52.524;17.580;2023-08-21T17:27:03;9.23;;;5.10;;
50739;SDS011;36704;52.524;17.580;2023-08-21T17:30:27;7.28;;;4.03;;
50739;SDS011;36704;52.524;17.580;2023-08-21T17:33:49;6.68;;;4.63;;
50739;SDS011;36704;52.524;17.580;2023-08-21T17:36:38;7.45;;;4.03;;
50739;SDS011;36704;52.524;17.580;2023-08-21T17:39:23;10.20;;;4.32;;
50739;SDS011;36704;52.524;17.580;2023-08-21T17:42:13;5.25;;;4.03;;
50739;SDS011;36704;52.524;17.580;2023-08-21T17:45:10;10.07;;;3.90;;
50739;SDS011;36704;52.524;17.580;2023-08-21T17:48:03;7.55;;;3.85;;
50739;SDS011;36704;52.524;17.580;2023-08-21T17:51:43;6.68;;;3.53;;
50739;SDS011;36704;52.524;17.580;2023-08-21T17:54:40;5.90;;;3.88;;
50739;SDS011;36704;52.524;17.580;2023-08-21T17:58:26;5.93;;;3.70;;
50739;SDS011;36704;52.524;17.580;2023-08-21T18:01:55;6.13;;;3.53;;
50739;SDS011;36704;52.524;17.580;2023-08-21T18:04:48;6.22;;;3.38;;
50739;SDS011;36704;52.524;17.580;2023-08-21T18:07:42;4.88;;;3.15;;
50739;SDS011;36704;52.524;17.580;2023-08-21T18:10:41;5.93;;;3.58;;
50739;SDS011;36704;52.524;17.580;2023-08-21T18:13:40;8.73;;;3.70;;
50739;SDS011;36704;52.524;17.580;2023-08-21T18:17:11;5.50;;;3.45;;
50739;SDS011;36704;52.524;17.580;2023-08-21T18:20:14;6.22;;;3.45;;
50739;SDS011;36704;52.524;17.580;2023-08-21T18:23:10;7.20;;;3.47;;
50739;SDS011;36704;52.524;17.580;2023-08-21T18:26:34;5.57;;;3.63;;
50739;SDS011;36704;52.524;17.580;2023-08-21T18:29:40;6.13;;;3.80;;
50739;SDS011;36704;52.524;17.580;2023-08-21T18:32:59;6.43;;;3.38;;
50739;SDS011;36704;52.524;17.580;2023-08-21T18:36:02;6.43;;;3.38;;
50739;SDS011;36704;52.524;17.580;2023-08-21T18:39:30;6.32;;;3.13;;
50739;SDS011;36704;52.524;17.580;2023-08-21T18:42:25;7.70;;;3.70;;
50739;SDS011;36704;52.524;17.580;2023-08-21T18:45:20;7.25;;;3.60;;
50739;SDS011;36704;52.524;17.580;2023-08-21T18:48:17;5.28;;;3.53;;
50739;SDS011;36704;52.524;17.580;2023-08-21T18:51:13;5.57;;;3.70;;
50739;SDS011;36704;52.524;17.580;2023-08-21T18:54:15;5.10;;;3.58;;
50739;SDS011;36704;52.524;17.580;2023-08-21T18:57:39;5.35;;;3.75;;
50739;SDS011;36704;52.524;17.580;2023-08-21T19:00:38;9.45;;;3.88;;
50739;SDS011;36704;52.524;17.580;2023-08-21T19:03:57;9.10;;;5.70;;
50739;SDS011;36704;52.524;17.580;2023-08-21T19:06:52;11.27;;;6.47;;
50739;SDS011;36704;52.524;17.580;2023-08-21T19:09:57;12.35;;;6.50;;
50739;SDS011;36704;52.524;17.580;2023-08-21T19:13:05;19.40;;;10.73;;